Time;durP1;ratioP1;P1;durP2;ratioP2;P2;SDS_P1;SDS_P2;PMS_P1;PMS_P2;Temp;Humidity;BMP_temperature;BMP_pressure;BME280_temperature;BME280_humidity;BME280_pressure;Samples;Min_cycle;Max_cycle;Signal;HPM_P1;HPM_P2
2022/06/02 00:02:26;;;;;;;8.00;4.63;;;11.80;99.90;;;;;;6231792;23;20198;-81
2022/06/02 00:05:11;;;;;;;5.50;3.67;;;11.80;99.90;;;;;;6192038;23;20234;-81
2022/06/02 00:07:55;;;;;;;5.32;3.80;;;11.80;99.90;;;;;;6201694;23;20184;-83
2022/06/02 00:10:27;;;;;;;6.68;4.00;;;11.80;99.90;;;;;;6211523;23;20591;-81
2022/06/02 00:13:15;;;;;;;4.63;3.50;;;11.80;99.90;;;;;;6212493;23;20143;-81
2022/06/02 00:15:52;;;;;;;5.80;3.83;;;11.80;99.90;;;;;;6197583;23;20152;-81
2022/06/02 00:18:37;;;;;;;4.60;3.38;;;11.80;99.90;;;;;;6184900;23;20510;-80
2022/06/02 00:21:24;;;;;;;4.80;3.55;;;11.80;99.90;;;;;;6187190;23;20133;-81
2022/06/02 00:23:59;;;;;;;7.15;4.18;;;11.80;99.90;;;;;;6185579;23;20160;-81
2022/06/02 00:26:55;;;;;;;5.35;3.45;;;11.80;99.90;;;;;;6186448;23;20156;-81
2022/06/02 00:29:58;;;;;;;4.50;3.15;;;11.80;99.90;;;;;;6186735;23;20152;-81
2022/06/02 00:32:26;;;;;;;5.65;3.92;;;11.70;99.90;;;;;;6186160;23;20219;-81
2022/06/02 00:35:03;;;;;;;6.13;3.53;;;11.80;99.90;;;;;;6184283;23;20255;-81
2022/06/02 00:38:13;;;;;;;5.20;3.22;;;11.80;99.90;;;;;;6185897;23;20173;-81
2022/06/02 00:40:38;;;;;;;3.90;3.33;;;11.80;99.90;;;;;;6123777;23;20252;-81
2022/06/02 00:43:28;;;;;;;4.65;3.58;;;11.80;99.90;;;;;;6173053;23;20188;-81
2022/06/02 00:46:18;;;;;;;6.10;3.08;;;11.80;99.90;;;;;;6185659;23;20224;-81
2022/06/02 00:49:09;;;;;;;7.10;4.03;;;11.80;99.90;;;;;;6184339;23;20491;-82
2022/06/02 00:51:40;;;;;;;5.50;3.70;;;11.70;99.90;;;;;;6187787;23;20153;-82
2022/06/02 00:57:31;;;;;;;3.92;3.28;;;11.70;99.90;;;;;;6187462;23;20279;-82
2022/06/02 01:00:41;;;;;;;5.20;3.65;;;11.70;99.90;;;;;;6187373;23;20646;-81
2022/06/02 01:03:19;;;;;;;4.72;3.10;;;11.70;99.90;;;;;;6159241;23;20168;-81
2022/06/02 01:06:04;;;;;;;7.07;3.88;;;11.70;99.90;;;;;;6186200;23;20214;-82
2022/06/02 01:08:38;;;;;;;4.93;3.60;;;11.70;99.90;;;;;;6216373;23;20219;-81
2022/06/02 01:11:29;;;;;;;6.20;4.68;;;11.60;99.90;;;;;;6191200;23;20555;-82
2022/06/02 01:14:18;;;;;;;5.60;3.75;;;11.60;99.90;;;;;;6191052;23;20152;-82
2022/06/02 01:17:08;;;;;;;3.80;3.40;;;11.60;99.90;;;;;;6217669;23;20140;-82
2022/06/02 01:19:36;;;;;;;9.15;4.05;;;11.50;99.90;;;;;;6217808;23;20157;-82
2022/06/02 01:22:20;;;;;;;3.80;3.38;;;11.60;99.90;;;;;;6190986;23;20166;-82
2022/06/02 01:25:04;;;;;;;9.05;3.97;;;11.60;99.90;;;;;;6217290;23;20230;-82
2022/06/02 01:27:52;;;;;;;4.72;3.60;;;11.60;99.90;;;;;;6217734;23;20148;-82
2022/06/02 01:30:57;;;;;;;5.03;3.78;;;11.60;99.90;;;;;;6190845;23;20210;-81
2022/06/02 01:33:41;;;;;;;6.97;3.72;;;11.60;99.90;;;;;;6217223;23;20159;-81
2022/06/02 01:36:28;;;;;;;5.05;3.40;;;11.60;99.90;;;;;;6190795;23;20563;-81
2022/06/02 01:39:04;;;;;;;4.85;3.60;;;11.60;99.90;;;;;;6217377;23;20176;-82
2022/06/02 01:41:36;;;;;;;4.82;3.95;;;11.60;99.90;;;;;;6217663;23;20186;-81
2022/06/02 01:44:30;;;;;;;4.10;3.13;;;11.70;99.90;;;;;;6190689;23;20239;-81
2022/06/02 01:47:01;;;;;;;4.55;3.60;;;11.70;99.90;;;;;;6217229;23;20140;-82
2022/06/02 01:49:40;;;;;;;2.80;2.50;;;11.80;99.90;;;;;;6217546;23;20187;-82
2022/06/02 01:52:28;;;;;;;4.22;3.17;;;11.80;99.90;;;;;;6217051;23;20203;-81
2022/06/02 01:55:19;;;;;;;5.25;3.70;;;11.80;99.90;;;;;;6217473;23;20174;-82
2022/06/02 01:57:57;;;;;;;3.33;3.00;;;11.80;99.90;;;;;;6200754;23;20191;-82
2022/06/02 02:00:27;;;;;;;5.32;3.00;;;11.80;99.90;;;;;;6216751;23;20273;-82
2022/06/02 02:03:01;;;;;;;5.10;2.92;;;11.80;99.90;;;;;;6217011;23;20294;-81
2022/06/02 02:05:59;;;;;;;3.00;2.70;;;11.80;99.90;;;;;;6190853;23;20217;-81
2022/06/02 02:08:46;;;;;;;4.10;2.67;;;11.90;99.90;;;;;;6216215;23;20233;-81
2022/06/02 02:11:36;;;;;;;3.83;2.92;;;11.90;99.90;;;;;;6217209;23;20148;-81
2022/06/02 02:14:21;;;;;;;3.63;2.95;;;11.90;99.90;;;;;;6217063;23;20176;-81
2022/06/02 02:17:13;;;;;;;3.40;2.95;;;12.00;99.90;;;;;;6217173;23;20589;-82
2022/06/02 02:19:50;;;;;;;3.42;2.90;;;12.00;99.90;;;;;;6216940;23;20149;-81
2022/06/02 02:22:36;;;;;;;4.57;3.35;;;12.10;99.90;;;;;;6217144;23;20151;-81
2022/06/02 02:25:02;;;;;;;3.83;3.00;;;12.10;99.90;;;;;;6217103;23;20140;-82
2022/06/02 02:28:03;;;;;;;3.65;2.85;;;12.10;99.90;;;;;;6217032;23;20459;-81
2022/06/02 02:30:44;;;;;;;3.20;2.90;;;12.10;99.90;;;;;;6217166;23;20156;-82
2022/06/02 02:33:58;;;;;;;5.00;3.42;;;12.20;99.90;;;;;;6190264;23;20218;-81
2022/06/02 02:36:28;;;;;;;3.63;3.10;;;12.20;99.90;;;;;;6190966;23;20182;-81
2022/06/02 02:39:06;;;;;;;4.28;3.30;;;12.20;99.90;;;;;;6190094;23;20195;-82
2022/06/02 02:42:07;;;;;;;4.35;3.28;;;12.20;99.90;;;;;;6189951;23;20156;-81
2022/06/02 02:44:46;;;;;;;4.80;3.20;;;12.20;99.90;;;;;;6134907;23;20209;-81
2022/06/02 02:47:25;;;;;;;3.40;2.58;;;12.30;99.90;;;;;;6216744;23;20147;-81
2022/06/02 02:50:19;;;;;;;3.45;2.65;;;12.30;99.90;;;;;;6216741;23;20140;-82
2022/06/02 02:53:12;;;;;;;4.10;2.65;;;12.30;99.90;;;;;;6216785;23;20148;-81
2022/06/02 02:55:59;;;;;;;3.55;2.92;;;12.30;99.90;;;;;;6216904;23;20144;-81
2022/06/02 02:58:54;;;;;;;3.03;2.53;;;12.40;99.90;;;;;;6216727;23;20261;-81
2022/06/02 03:01:45;;;;;;;3.78;2.97;;;12.40;99.90;;;;;;6202231;23;20243;-81
2022/06/02 03:04:11;;;;;;;2.20;2.00;;;12.50;99.90;;;;;;6216229;23;20136;-81
2022/06/02 03:06:42;;;;;;;3.83;2.70;;;12.50;99.90;;;;;;6216754;23;20195;-81
2022/06/02 03:09:36;;;;;;;4.13;2.42;;;12.50;99.90;;;;;;6216723;23;20489;-80
2022/06/02 03:12:10;;;;;;;3.55;2.17;;;12.60;99.90;;;;;;6216445;23;20147;-81
2022/06/02 03:15:15;;;;;;;3.30;2.58;;;12.60;99.90;;;;;;6216617;23;20201;-80
2022/06/02 03:18:15;;;;;;;4.10;2.60;;;12.60;99.90;;;;;;6190011;23;20198;-81
2022/06/02 03:20:59;;;;;;;4.47;2.63;;;12.60;99.90;;;;;;6216683;23;20144;-81
2022/06/02 03:23:49;;;;;;;3.08;2.30;;;12.70;99.90;;;;;;6216973;23;20563;-81
2022/06/02 03:26:37;;;;;;;3.65;2.75;;;12.80;99.90;;;;;;6216092;23;20582;-81
2022/06/02 03:29:14;;;;;;;2.83;2.20;;;12.80;99.90;;;;;;6216059;23;20230;-81
2022/06/02 03:32:14;;;;;;;3.47;2.50;;;12.80;99.90;;;;;;6190048;23;20160;-81
2022/06/02 03:34:57;;;;;;;3.25;2.83;;;12.90;99.90;;;;;;6216333;23;20230;-81
2022/06/02 03:37:46;;;;;;;3.60;2.95;;;12.90;99.90;;;;;;6189914;23;20192;-80
2022/06/02 03:40:25;;;;;;;4.90;2.83;;;13.00;99.90;;;;;;6216202;23;20140;-81
2022/06/02 03:43:15;;;;;;;4.13;2.95;;;13.00;99.90;;;;;;6189952;23;20230;-81
2022/06/02 03:46:03;;;;;;;4.70;3.53;;;13.10;99.90;;;;;;6189672;23;20171;-81
2022/06/02 03:48:51;;;;;;;4.35;3.05;;;13.10;99.90;;;;;;6173230;23;20629;-81
2022/06/02 03:51:34;;;;;;;4.22;3.00;;;13.10;99.90;;;;;;6215835;23;20144;-81
2022/06/02 03:54:27;;;;;;;4.07;3.38;;;13.20;99.90;;;;;;6189373;23;20659;-81
2022/06/02 03:57:22;;;;;;;3.58;2.72;;;13.20;99.90;;;;;;6216338;23;20156;-81
2022/06/02 03:59:59;;;;;;;3.70;3.38;;;13.30;99.90;;;;;;6165059;23;20175;-81
2022/06/02 04:02:43;;;;;;;5.97;3.60;;;13.40;99.90;;;;;;6189963;23;20609;-81
2022/06/02 04:05:46;;;;;;;4.45;3.17;;;13.40;99.90;;;;;;6216026;23;20136;-81
2022/06/02 04:08:39;;;;;;;6.30;3.72;;;13.40;99.90;;;;;;6215966;23;20273;-81
2022/06/02 04:13:37;;;;;;;3.67;3.13;;;13.50;99.90;;;;;;6190204;23;20140;-82
2022/06/02 04:14:42;;;;;;;6.20;4.05;;;13.60;99.90;;;;;;6215707;23;20164;-81
2022/06/02 04:17:42;;;;;;;4.25;3.47;;;13.70;99.90;;;;;;6215484;23;20159;-81
2022/06/02 04:20:49;;;;;;;4.85;3.60;;;13.70;99.90;;;;;;6149137;23;20156;-81
2022/06/02 04:23:37;;;;;;;4.40;3.53;;;13.80;99.90;;;;;;6214876;23;20489;-81
2022/06/02 04:26:39;;;;;;;6.03;4.65;;;13.90;99.90;;;;;;6189300;23;20159;-82
2022/06/02 04:29:49;;;;;;;5.82;4.65;;;14.10;99.90;;;;;;6189395;23;20166;-81
2022/06/02 04:32:29;;;;;;;4.53;3.47;;;14.20;99.90;;;;;;6194004;23;20156;-81
2022/06/02 04:35:35;;;;;;;5.35;4.22;;;14.40;99.90;;;;;;6215984;23;20183;-81
2022/06/02 04:38:15;;;;;;;4.68;3.65;;;14.40;99.90;;;;;;6155420;23;20266;-81
2022/06/02 04:41:37;;;;;;;5.75;3.78;;;14.40;99.90;;;;;;6215850;23;20140;-81
2022/06/02 04:44:23;;;;;;;4.03;3.00;;;14.60;99.90;;;;;;6094153;23;20552;-89
2022/06/02 04:47:02;;;;;;;4.72;3.13;;;14.70;99.90;;;;;;6189478;23;20160;-81
2022/06/02 04:49:55;;;;;;;5.47;3.28;;;14.80;99.90;;;;;;6215593;23;20167;-82
2022/06/02 04:52:45;;;;;;;4.75;3.33;;;14.90;99.90;;;;;;6215541;23;20609;-82
2022/06/02 04:55:25;;;;;;;4.85;3.28;;;15.00;99.90;;;;;;6188985;23;20161;-82
2022/06/02 04:58:19;;;;;;;4.68;3.67;;;15.00;99.90;;;;;;6215306;23;20179;-82
2022/06/02 05:01:15;;;;;;;5.28;3.63;;;15.00;99.90;;;;;;6188012;23;20151;-82
2022/06/02 05:03:55;;;;;;;5.00;4.00;;;14.90;99.90;;;;;;6215172;23;20167;-81
2022/06/02 05:06:44;;;;;;;5.50;4.10;;;14.90;99.90;;;;;;6214207;23;20156;-81
2022/06/02 05:09:51;;;;;;;5.45;3.63;;;14.80;99.90;;;;;;6214890;23;20144;-81
2022/06/02 05:12:41;;;;;;;3.83;3.45;;;14.70;99.90;;;;;;6198753;23;20164;-81
2022/06/02 05:15:35;;;;;;;5.88;4.40;;;14.60;99.90;;;;;;6188227;23;20210;-86
2022/06/02 05:18:39;;;;;;;6.43;4.18;;;14.60;99.90;;;;;;6210966;23;20196;-83
2022/06/02 05:21:17;;;;;;;5.90;3.90;;;14.60;99.90;;;;;;6214436;23;20151;-83
2022/06/02 05:24:13;;;;;;;5.63;4.20;;;14.60;99.90;;;;;;6188366;23;20156;-83
2022/06/02 05:27:01;;;;;;;5.97;4.10;;;14.60;99.90;;;;;;6214968;23;20175;-81
2022/06/02 05:29:38;;;;;;;5.32;4.38;;;14.60;99.90;;;;;;6188423;23;20368;-82
2022/06/02 05:32:31;;;;;;;4.00;3.33;;;14.60;99.90;;;;;;6214911;23;20143;-81
2022/06/02 05:35:00;;;;;;;5.80;4.13;;;14.60;99.90;;;;;;6215209;23;20347;-83
2022/06/02 05:37:31;;;;;;;3.72;2.92;;;14.60;99.90;;;;;;6216032;23;20234;-82
2022/06/02 05:40:26;;;;;;;4.63;3.47;;;14.50;99.90;;;;;;6216500;23;20151;-84
2022/06/02 05:43:13;;;;;;;5.65;3.65;;;14.40;99.90;;;;;;6169770;23;20598;-81
2022/06/02 05:45:55;;;;;;;4.65;3.55;;;14.40;99.90;;;;;;6217351;23;20151;-82
2022/06/02 05:48:43;;;;;;;4.40;3.25;;;14.30;99.90;;;;;;6217454;23;20148;-82
2022/06/02 05:51:26;;;;;;;4.57;3.10;;;14.20;99.90;;;;;;6217805;23;20590;-80
2022/06/02 05:53:58;;;;;;;5.00;3.78;;;14.10;99.90;;;;;;6217636;23;20171;-81
2022/06/02 05:56:52;;;;;;;5.45;3.55;;;14.00;99.90;;;;;;6217484;23;20152;-81
2022/06/02 05:59:39;;;;;;;4.22;3.45;;;13.90;99.90;;;;;;6191471;23;20294;-81
2022/06/02 06:02:56;;;;;;;4.93;3.30;;;13.80;99.90;;;;;;6229413;23;20146;-79
2022/06/02 06:05:41;;;;;;;3.13;2.72;;;13.70;99.90;;;;;;6109664;23;20169;-79
2022/06/02 06:08:24;;;;;;;6.13;3.03;;;13.60;99.90;;;;;;6216846;23;20203;-81
2022/06/02 06:11:11;;;;;;;2.83;2.25;;;13.60;99.90;;;;;;6226984;23;20166;-82
2022/06/02 06:13:55;;;;;;;5.18;3.35;;;13.50;99.90;;;;;;6229633;23;20141;-80
2022/06/02 06:16:44;;;;;;;4.53;3.10;;;13.50;99.90;;;;;;6228653;23;20147;-80
2022/06/02 06:19:31;;;;;;;4.43;3.40;;;13.50;99.90;;;;;;6224406;23;20211;-82
2022/06/02 06:22:09;;;;;;;3.38;2.78;;;14.20;99.90;;;;;;6217352;23;20140;-81
2022/06/02 06:24:54;;;;;;;5.07;3.63;;;13.40;99.90;;;;;;6204303;23;20190;-84
2022/06/02 06:27:29;;;;;;;3.78;3.15;;;13.40;99.90;;;;;;6243324;23;20148;-90
2022/06/02 06:30:20;;;;;;;5.00;3.97;;;13.40;99.90;;;;;;6217296;23;20151;-91
2022/06/02 06:33:03;;;;;;;5.07;3.58;;;13.40;99.90;;;;;;6228715;23;20154;-81
2022/06/02 06:35:35;;;;;;;5.72;3.88;;;13.40;99.90;;;;;;6188279;23;20182;-84
2022/06/02 06:38:45;;;;;;;5.20;3.75;;;13.30;99.90;;;;;;6189161;23;20188;-82
2022/06/02 06:41:39;;;;;;;5.30;3.95;;;13.30;99.90;;;;;;6152530;23;20184;-82
2022/06/02 06:44:28;;;;;;;6.35;3.42;;;13.30;99.90;;;;;;6104870;23;20184;-81
2022/06/02 06:47:20;;;;;;;4.45;3.65;;;13.20;99.90;;;;;;6203817;23;20586;-82
2022/06/02 06:50:05;;;;;;;4.70;3.50;;;13.20;99.90;;;;;;6215896;23;20140;-80
2022/06/02 06:53:18;;;;;;;5.53;4.05;;;13.30;99.90;;;;;;6189173;23;20234;-82
2022/06/02 06:55:51;;;;;;;4.65;3.53;;;13.30;99.90;;;;;;6204107;23;20239;-82
2022/06/02 06:58:31;;;;;;;4.93;3.65;;;13.20;99.90;;;;;;6188644;23;20191;-82
2022/06/02 07:01:16;;;;;;;4.85;3.58;;;13.20;99.90;;;;;;6215249;23;20591;-81
2022/06/02 07:04:06;;;;;;;7.82;3.30;;;13.20;99.90;;;;;;6188480;23;20155;-82
2022/06/02 07:07:02;;;;;;;4.70;3.45;;;13.10;99.90;;;;;;6214394;23;20145;-82
2022/06/02 07:09:37;;;;;;;5.00;3.45;;;13.10;99.90;;;;;;6188668;23;20167;-83
2022/06/02 07:15:58;;;;;;;7.40;4.43;;;13.00;99.90;;;;;;6214644;23;20202;-82
2022/06/02 07:18:42;;;;;;;6.15;3.42;;;13.00;99.90;;;;;;6122420;23;20192;-82
2022/06/02 07:21:23;;;;;;;3.95;3.55;;;12.90;99.90;;;;;;6188281;23;20638;-83
2022/06/02 07:23:55;;;;;;;4.18;3.38;;;12.90;99.90;;;;;;6215025;23;20567;-82
2022/06/02 07:27:18;;;;;;;4.68;3.20;;;12.90;99.90;;;;;;6214785;23;20148;-82
2022/06/02 07:30:04;;;;;;;5.30;3.80;;;12.80;99.90;;;;;;6093370;23;20245;-81
2022/06/02 07:33:02;;;;;;;4.10;3.00;;;13.00;99.90;;;;;;6068751;23;20162;-82
2022/06/02 07:35:46;;;;;;;4.72;3.60;;;12.80;99.90;;;;;;6193185;23;20242;-82
2022/06/02 07:38:23;;;;;;;5.88;3.90;;;12.90;99.90;;;;;;6187861;23;20191;-82
2022/06/02 07:41:15;;;;;;;5.05;3.40;;;12.90;99.90;;;;;;6214853;23;20607;-81
2022/06/02 07:44:18;;;;;;;6.40;4.55;;;12.90;99.90;;;;;;6214683;23;20140;-84
2022/06/02 07:47:26;;;;;;;4.93;4.25;;;12.90;99.90;;;;;;6187651;23;20155;-82
2022/06/02 07:50:08;;;;;;;5.45;3.97;;;12.90;99.90;;;;;;6187533;23;20156;-81
2022/06/02 07:52:44;;;;;;;7.82;4.05;;;13.00;99.90;;;;;;6214369;23;20144;-80
2022/06/02 07:55:51;;;;;;;5.40;4.88;;;13.00;99.90;;;;;;6213934;23;20140;-81
2022/06/02 07:58:32;;;;;;;5.25;4.30;;;13.00;99.90;;;;;;6091747;23;20555;-82
2022/06/02 08:01:08;;;;;;;6.10;4.38;;;13.00;99.90;;;;;;6200827;23;20166;-80
2022/06/02 08:03:48;;;;;;;5.43;4.10;;;13.00;99.90;;;;;;6187490;23;20152;-83
2022/06/02 08:06:35;;;;;;;5.10;3.97;;;13.00;99.90;;;;;;6187678;23;20183;-80
2022/06/02 08:09:19;;;;;;;4.40;3.97;;;13.10;99.90;;;;;;6188502;23;20177;-82
2022/06/02 08:11:54;;;;;;;6.03;4.15;;;13.10;99.90;;;;;;6215165;23;20144;-82
2022/06/02 08:14:38;;;;;;;5.80;3.78;;;13.20;99.90;;;;;;6215084;23;20136;-84
2022/06/02 08:17:32;;;;;;;5.35;4.32;;;13.30;99.90;;;;;;6215305;23;20144;-83
2022/06/02 08:20:23;;;;;;;4.43;3.80;;;13.40;99.90;;;;;;6188242;23;20183;-82
2022/06/02 08:22:59;;;;;;;4.80;3.60;;;13.50;99.90;;;;;;6188680;23;20222;-82
2022/06/02 08:25:37;;;;;;;4.07;3.63;;;13.60;99.90;;;;;;6215838;23;20182;-82
2022/06/02 08:28:08;;;;;;;8.23;4.65;;;13.70;99.90;;;;;;6189118;23;20163;-82
2022/06/02 08:30:48;;;;;;;6.22;5.13;;;13.60;99.90;;;;;;6215136;23;20571;-83
2022/06/02 08:33:41;;;;;;;6.75;5.15;;;13.50;99.90;;;;;;6215889;23;20136;-83
2022/06/02 08:36:07;;;;;;;8.40;5.40;;;13.60;99.90;;;;;;6189366;23;20164;-83
2022/06/02 08:38:38;;;;;;;7.53;5.03;;;13.60;99.90;;;;;;6188986;23;20215;-81
2022/06/02 08:41:28;;;;;;;6.38;4.57;;;13.60;99.90;;;;;;6189353;23;20156;-82
2022/06/02 08:44:09;;;;;;;6.10;5.15;;;13.70;99.90;;;;;;6215502;23;20263;-82
2022/06/02 08:46:44;;;;;;;7.20;5.13;;;13.70;99.90;;;;;;6215894;23;20587;-82
2022/06/02 08:49:28;;;;;;;9.88;5.25;;;13.70;99.90;;;;;;6215691;23;20160;-81
2022/06/02 08:52:12;;;;;;;7.18;4.82;;;13.70;99.90;;;;;;6215647;23;20144;-83
2022/06/02 08:54:49;;;;;;;5.93;4.85;;;13.70;99.90;;;;;;6215695;23;20144;-81
2022/06/02 08:57:33;;;;;;;5.50;4.07;;;13.70;99.90;;;;;;6215431;23;20148;-81
2022/06/02 09:00:07;;;;;;;5.18;4.38;;;13.80;99.90;;;;;;6215617;23;20152;-81
2022/06/02 09:02:36;;;;;;;5.18;4.20;;;13.60;99.90;;;;;;6215344;23;20154;-84
2022/06/02 09:05:05;;;;;;;6.40;4.25;;;13.80;99.90;;;;;;6189305;23;20155;-82
2022/06/02 09:07:50;;;;;;;8.27;5.43;;;13.80;99.90;;;;;;6215116;23;20187;-82
2022/06/02 09:10:39;;;;;;;8.30;5.85;;;13.90;99.90;;;;;;6216133;23;20141;-82
2022/06/02 09:13:42;;;;;;;7.07;5.20;;;13.90;99.90;;;;;;6191432;23;20160;-83
2022/06/02 09:16:28;;;;;;;7.40;5.10;;;13.90;99.90;;;;;;6191009;23;20167;-83
2022/06/02 09:19:31;;;;;;;5.68;4.68;;;13.90;99.90;;;;;;6217044;23;20270;-82
2022/06/02 09:22:09;;;;;;;9.88;5.20;;;13.90;99.90;;;;;;6217415;23;20148;-83
2022/06/02 09:24:57;;;;;;;6.30;4.57;;;13.90;99.90;;;;;;6191220;23;20159;-83
2022/06/02 09:27:56;;;;;;;6.93;4.72;;;14.00;99.90;;;;;;6217301;23;20143;-81
2022/06/02 09:30:43;;;;;;;6.13;4.25;;;14.00;99.90;;;;;;6190695;23;20180;-82
2022/06/02 09:33:37;;;;;;;6.38;4.57;;;14.10;99.90;;;;;;6217984;23;20175;-82
2022/06/02 09:36:17;;;;;;;5.60;3.72;;;14.10;99.90;;;;;;6162555;23;20156;-81
2022/06/02 09:39:17;;;;;;;8.30;4.45;;;14.20;99.90;;;;;;6190740;23;20198;-83
2022/06/02 09:42:04;;;;;;;8.15;4.85;;;14.30;99.90;;;;;;6216826;23;20140;-82
2022/06/02 09:44:43;;;;;;;6.55;5.10;;;14.30;99.90;;;;;;6217198;23;20476;-83
2022/06/02 09:47:15;;;;;;;8.85;5.50;;;14.30;99.90;;;;;;6217923;23;20147;-83
2022/06/02 09:49:57;;;;;;;8.82;6.20;;;14.30;99.90;;;;;;6217147;23;20607;-88
2022/06/02 09:52:45;;;;;;;8.38;5.85;;;14.40;99.90;;;;;;6217726;23;20476;-83
2022/06/02 09:55:22;;;;;;;8.90;6.35;;;14.30;99.90;;;;;;6190840;23;20590;-84
2022/06/02 09:57:56;;;;;;;8.27;5.85;;;14.30;99.90;;;;;;6217326;23;20211;-84
2022/06/02 10:00:30;;;;;;;8.57;6.10;;;14.30;99.90;;;;;;6217522;23;20141;-84
2022/06/02 10:03:02;;;;;;;22.23;7.15;;;14.40;99.90;;;;;;6190643;23;20162;-83
2022/06/02 10:05:49;;;;;;;8.77;6.00;;;14.50;99.90;;;;;;6190706;23;20166;-83
2022/06/02 10:08:53;;;;;;;8.93;6.78;;;14.60;99.90;;;;;;6216770;23;20195;-82
2022/06/02 10:11:36;;;;;;;9.25;6.60;;;14.60;99.90;;;;;;6217092;23;20148;-83
2022/06/02 10:14:11;;;;;;;13.98;7.68;;;14.70;99.90;;;;;;6190047;23;20155;-82
2022/06/02 10:16:59;;;;;;;11.80;7.40;;;14.80;99.90;;;;;;6190476;23;20645;-83
2022/06/02 10:19:52;;;;;;;9.30;7.38;;;14.80;99.90;;;;;;6190441;23;20188;-83
2022/06/02 10:22:52;;;;;;;12.23;8.93;;;14.80;99.90;;;;;;6190802;23;20160;-83
2022/06/02 10:25:52;;;;;;;9.13;7.30;;;14.90;99.90;;;;;;6217355;23;20316;-83
2022/06/02 10:28:55;;;;;;;10.75;7.57;;;14.90;99.90;;;;;;6178953;23;20168;-84
2022/06/02 10:31:55;;;;;;;9.27;7.32;;;15.00;99.90;;;;;;6217403;23;20582;-83
2022/06/02 10:34:58;;;;;;;8.63;6.78;;;15.10;99.90;;;;;;6217437;23;20140;-83
2022/06/02 10:37:46;;;;;;;6.55;5.38;;;15.20;99.90;;;;;;6191490;23;20159;-83
2022/06/02 10:40:28;;;;;;;7.30;5.38;;;15.20;99.90;;;;;;6217377;23;20159;-84
2022/06/02 10:43:16;;;;;;;7.53;6.07;;;15.30;99.90;;;;;;6190234;23;20152;-84
2022/06/02 10:45:51;;;;;;;6.63;5.30;;;15.40;99.90;;;;;;6215611;23;20155;-84
2022/06/02 10:48:17;;;;;;;7.40;5.10;;;15.50;99.90;;;;;;6190118;23;20160;-85
2022/06/02 10:51:05;;;;;;;7.15;5.38;;;15.50;99.90;;;;;;6189801;23;20164;-84
2022/06/02 10:53:53;;;;;;;6.60;5.68;;;15.50;99.90;;;;;;6216665;23;20262;-84
2022/06/02 10:56:22;;;;;;;7.38;5.60;;;15.50;99.90;;;;;;6189914;23;20465;-84
2022/06/02 10:59:26;;;;;;;10.07;6.13;;;15.60;99.90;;;;;;6217333;23;20190;-84
2022/06/02 11:02:10;;;;;;;8.25;5.50;;;15.60;99.90;;;;;;6170317;23;20602;-83
2022/06/02 11:04:54;;;;;;;8.63;5.97;;;15.60;99.90;;;;;;6217456;23;20568;-83
2022/06/02 11:07:57;;;;;;;7.53;5.50;;;15.80;99.90;;;;;;6190009;23;20746;-84
2022/06/02 11:10:28;;;;;;;9.00;5.80;;;15.70;99.90;;;;;;6217062;23;20587;-83
2022/06/02 11:13:00;;;;;;;10.15;6.65;;;16.00;99.90;;;;;;6189693;23;20163;-83
2022/06/02 11:15:54;;;;;;;9.85;6.38;;;16.20;99.90;;;;;;6190417;23;20156;-84
2022/06/02 11:18:29;;;;;;;8.43;6.07;;;16.30;99.90;;;;;;6227565;23;20170;-83
2022/06/02 11:21:26;;;;;;;9.27;5.75;;;16.60;99.90;;;;;;6231062;23;20144;-83
2022/06/02 11:24:07;;;;;;;8.32;6.32;;;16.70;99.90;;;;;;6196039;23;20164;-91
2022/06/02 11:26:45;;;;;;;8.75;5.90;;;16.90;99.90;;;;;;6191661;23;20192;-83
2022/06/02 11:29:29;;;;;;;7.30;6.00;;;16.90;99.90;;;;;;6197831;23;20164;-84
2022/06/02 11:32:35;;;;;;;5.90;5.28;;;16.80;99.90;;;;;;6220387;23;20213;-83
2022/06/02 11:35:30;;;;;;;8.60;5.55;;;16.90;99.90;;;;;;6218960;23;20152;-84
2022/06/02 11:38:36;;;;;;;7.95;5.53;;;17.00;99.90;;;;;;6190962;23;20183;-84
2022/06/02 11:41:02;;;;;;;6.50;5.35;;;17.00;99.90;;;;;;6145299;23;20171;-83
2022/06/02 11:43:34;;;;;;;5.57;4.25;;;16.90;99.90;;;;;;6190042;23;20164;-83
2022/06/02 11:46:24;;;;;;;5.93;5.15;;;17.00;99.90;;;;;;6189933;23;20159;-84
2022/06/02 11:49:20;;;;;;;5.70;4.75;;;17.30;99.90;;;;;;6217177;23;20145;-83
2022/06/02 11:52:04;;;;;;;14.95;8.13;;;17.70;99.90;;;;;;6216714;23;20144;-83
2022/06/02 11:54:45;;;;;;;7.95;5.20;;;18.00;99.90;;;;;;6189589;23;20156;-83
2022/06/02 11:57:38;;;;;;;7.47;5.47;;;18.00;99.90;;;;;;6216909;23;20136;-84
2022/06/02 12:00:29;;;;;;;6.55;5.68;;;17.90;99.90;;;;;;6190020;23;20250;-84
2022/06/02 12:03:16;;;;;;;7.63;5.65;;;18.10;99.90;;;;;;6216929;23;20147;-83
2022/06/02 12:05:55;;;;;;;7.90;5.85;;;18.40;99.90;;;;;;6190129;23;20190;-84
2022/06/02 12:08:40;;;;;;;5.60;4.70;;;18.50;99.90;;;;;;6216616;23;20222;-83
2022/06/02 12:11:21;;;;;;;7.95;5.22;;;18.50;99.90;;;;;;6216330;23;20575;-84
2022/06/02 12:14:08;;;;;;;7.50;5.72;;;18.30;99.90;;;;;;6189837;23;20567;-82
2022/06/02 12:17:04;;;;;;;8.43;6.28;;;18.20;99.90;;;;;;6219150;23;20154;-83
2022/06/02 12:19:41;;;;;;;8.20;5.90;;;18.30;99.90;;;;;;6227214;23;20566;-84
2022/06/02 12:22:28;;;;;;;6.13;4.28;;;18.30;99.90;;;;;;6201909;23;20155;-84
2022/06/02 12:25:15;;;;;;;6.85;5.30;;;18.30;99.90;;;;;;6208507;23;20171;-83
2022/06/02 12:28:22;;;;;;;7.25;5.35;;;18.30;99.90;;;;;;6243341;23;20154;-84
2022/06/02 12:31:15;;;;;;;8.63;4.85;;;18.40;99.90;;;;;;6099209;23;20174;-85
2022/06/02 12:34:06;;;;;;;8.50;5.45;;;18.40;99.90;;;;;;6122408;23;20135;-85
2022/06/02 12:37:10;;;;;;;5.68;4.68;;;18.30;99.90;;;;;;6187869;23;20167;-85
2022/06/02 12:40:13;;;;;;;7.78;4.95;;;18.50;99.90;;;;;;6227274;23;20198;-85
2022/06/02 12:42:51;;;;;;;7.05;5.18;;;18.70;99.90;;;;;;6241306;23;20128;-85
2022/06/02 12:45:37;;;;;;;8.02;5.43;;;18.70;99.90;;;;;;6241626;23;20136;-86
2022/06/02 12:48:06;;;;;;;8.50;5.93;;;18.80;99.90;;;;;;6242150;23;20128;-89
2022/06/02 12:50:40;;;;;;;6.85;4.80;;;18.90;99.90;;;;;;6193042;23;20168;-84
2022/06/02 12:53:12;;;;;;;7.05;5.65;;;18.90;99.90;;;;;;6217152;23;20210;-85
2022/06/02 12:55:45;;;;;;;7.30;5.75;;;19.00;99.90;;;;;;6190546;23;20247;-84
2022/06/02 12:58:38;;;;;;;9.43;5.97;;;19.20;99.90;;;;;;6190843;23;20184;-86
2022/06/02 13:01:37;;;;;;;8.80;6.32;;;19.20;99.90;;;;;;6217069;23;20220;-89
2022/06/02 13:04:21;;;;;;;8.18;5.93;;;19.20;99.90;;;;;;6216064;23;20140;-85
2022/06/02 13:07:08;;;;;;;7.70;5.47;;;19.20;99.90;;;;;;6216048;23;20187;-86
2022/06/02 13:09:39;;;;;;;8.10;5.93;;;19.30;99.90;;;;;;6190294;23;20159;-85
2022/06/02 13:12:34;;;;;;;8.95;6.38;;;19.40;99.90;;;;;;6189599;23;20649;-88
2022/06/02 13:15:33;;;;;;;7.10;5.35;;;19.50;99.90;;;;;;6170152;23;20482;-85
2022/06/02 13:18:53;;;;;;;9.43;6.18;;;19.60;99.90;;;;;;6189089;23;20191;-85
2022/06/02 13:21:57;;;;;;;7.75;5.35;;;19.60;99.90;;;;;;6215977;23;20172;-85
2022/06/02 13:24:32;;;;;;;6.85;5.03;;;19.30;99.90;;;;;;6188862;23;20160;-85
2022/06/02 13:27:25;;;;;;;8.15;5.90;;;19.20;99.90;;;;;;6189025;23;20155;-85
2022/06/02 13:29:57;;;;;;;8.32;5.30;;;19.30;99.90;;;;;;6215464;23;20152;-85
2022/06/02 13:32:35;;;;;;;8.27;5.50;;;19.40;99.90;;;;;;6189063;23;20191;-85
2022/06/02 13:35:25;;;;;;;7.30;5.47;;;19.60;99.90;;;;;;6215895;23;20218;-86
2022/06/02 13:38:09;;;;;;;7.57;5.40;;;19.60;99.90;;;;;;6189237;23;20195;-85
2022/06/02 13:41:00;;;;;;;7.18;5.60;;;19.80;99.90;;;;;;6189252;23;20160;-86
2022/06/02 13:43:44;;;;;;;6.70;5.53;;;19.60;99.90;;;;;;6143049;23;20230;-85
2022/06/02 13:46:41;;;;;;;9.73;6.40;;;19.60;99.90;;;;;;6215608;23;20209;-85
2022/06/02 13:49:35;;;;;;;6.90;5.47;;;19.70;99.90;;;;;;6215636;23;20179;-85
2022/06/02 13:52:39;;;;;;;7.57;5.68;;;19.90;99.90;;;;;;6214896;23;20551;-84
2022/06/02 13:58:37;;;;;;;5.15;4.45;;;19.70;99.90;;;;;;6216462;23;20186;-84
2022/06/02 14:01:27;;;;;;;5.45;4.13;;;19.40;99.90;;;;;;6190853;23;20222;-84
2022/06/02 14:04:57;;;;;;;5.57;3.92;;;19.40;99.90;;;;;;6217366;23;20258;-85
2022/06/02 14:07:59;;;;;;;6.63;4.63;;;19.60;99.90;;;;;;6095588;23;20703;-83
2022/06/02 14:10:50;;;;;;;5.85;4.38;;;19.70;99.90;;;;;;6071586;23;20181;-83
2022/06/02 14:13:34;;;;;;;5.80;4.32;;;19.60;99.90;;;;;;6176136;23;20156;-83
2022/06/02 14:16:09;;;;;;;7.57;4.70;;;19.90;99.90;;;;;;6187426;23;20171;-84
2022/06/02 14:19:01;;;;;;;4.80;3.75;;;20.10;99.90;;;;;;6160364;23;20234;-85
2022/06/02 14:21:27;;;;;;;5.80;4.47;;;20.00;99.90;;;;;;6160657;23;20160;-84
2022/06/02 14:24:14;;;;;;;6.20;4.80;;;18.90;99.90;;;;;;6160703;23;20172;-84
2022/06/02 14:26:58;;;;;;;5.78;4.35;;;19.50;99.90;;;;;;6187105;23;20167;-85
2022/06/02 14:29:48;;;;;;;6.85;4.85;;;19.30;99.90;;;;;;6160623;23;20196;-86
2022/06/02 14:32:29;;;;;;;6.32;4.43;;;19.20;99.90;;;;;;6186805;23;20145;-84
2022/06/02 14:35:18;;;;;;;7.65;5.20;;;19.10;99.90;;;;;;6186427;23;20141;-84
2022/06/02 14:38:04;;;;;;;11.00;6.03;;;19.20;99.90;;;;;;6159761;23;20267;-84